sensor_id;sensor_type;location;lat;lon;timestamp;P1;durP1;ratioP1;P2;durP2;ratioP2
68509;SDS011;55512;50.102;19.958;2023-12-22T00:01:30;5.30;;;1.20;;
68509;SDS011;55512;50.102;19.958;2023-12-22T00:03:55;6.30;;;1.40;;
68509;SDS011;55512;50.102;19.958;2023-12-22T00:06:21;6.30;;;1.50;;
68509;SDS011;55512;50.102;19.958;2023-12-22T00:08:46;6.60;;;1.80;;
68509;SDS011;55512;50.102;19.958;2023-12-22T00:11:12;6.00;;;1.50;;
68509;SDS011;55512;50.102;19.958;2023-12-22T00:13:37;4.80;;;1.00;;
68509;SDS011;55512;50.102;19.958;2023-12-22T00:16:03;5.40;;;1.30;;
68509;SDS011;55512;50.102;19.958;2023-12-22T00:18:29;7.10;;;1.80;;
68509;SDS011;55512;50.102;19.958;2023-12-22T00:20:54;6.20;;;1.40;;
68509;SDS011;55512;50.102;19.958;2023-12-22T00:23:20;7.10;;;1.50;;
68509;SDS011;55512;50.102;19.958;2023-12-22T00:25:45;5.10;;;1.30;;
68509;SDS011;55512;50.102;19.958;2023-12-22T00:28:10;8.40;;;2.40;;
68509;SDS011;55512;50.102;19.958;2023-12-22T00:30:36;6.40;;;1.10;;
68509;SDS011;55512;50.102;19.958;2023-12-22T00:33:01;6.50;;;1.60;;
68509;SDS011;55512;50.102;19.958;2023-12-22T00:35:27;5.20;;;1.20;;
68509;SDS011;55512;50.102;19.958;2023-12-22T00:37:52;7.70;;;1.40;;
68509;SDS011;55512;50.102;19.958;2023-12-22T00:40:18;5.50;;;1.20;;
68509;SDS011;55512;50.102;19.958;2023-12-22T00:42:43;11.40;;;2.20;;
68509;SDS011;55512;50.102;19.958;2023-12-22T00:45:09;6.20;;;1.70;;
68509;SDS011;55512;50.102;19.958;2023-12-22T00:47:35;7.10;;;1.50;;
68509;SDS011;55512;50.102;19.958;2023-12-22T00:50:01;6.00;;;1.50;;
68509;SDS011;55512;50.102;19.958;2023-12-22T00:52:28;3.50;;;0.80;;
68509;SDS011;55512;50.102;19.958;2023-12-22T00:54:53;5.60;;;1.10;;
68509;SDS011;55512;50.102;19.958;2023-12-22T00:57:18;4.70;;;1.20;;
68509;SDS011;55512;50.102;19.958;2023-12-22T00:59:44;5.60;;;1.60;;
68509;SDS011;55512;50.102;19.958;2023-12-22T01:02:13;5.60;;;1.10;;
68509;SDS011;55512;50.102;19.958;2023-12-22T01:04:41;4.10;;;1.20;;
68509;SDS011;55512;50.102;19.958;2023-12-22T01:07:10;5.20;;;1.30;;
68509;SDS011;55512;50.102;19.958;2023-12-22T01:09:36;5.80;;;1.20;;
68509;SDS011;55512;50.102;19.958;2023-12-22T01:12:05;4.20;;;0.80;;
68509;SDS011;55512;50.102;19.958;2023-12-22T01:14:31;6.70;;;1.80;;
68509;SDS011;55512;50.102;19.958;2023-12-22T01:16:59;5.00;;;1.20;;
68509;SDS011;55512;50.102;19.958;2023-12-22T01:19:25;7.10;;;1.50;;
68509;SDS011;55512;50.102;19.958;2023-12-22T01:21:51;7.40;;;1.30;;
68509;SDS011;55512;50.102;19.958;2023-12-22T01:24:16;7.10;;;1.70;;
68509;SDS011;55512;50.102;19.958;2023-12-22T01:26:42;5.60;;;1.50;;
68509;SDS011;55512;50.102;19.958;2023-12-22T01:29:07;4.70;;;1.20;;
68509;SDS011;55512;50.102;19.958;2023-12-22T01:31:33;6.30;;;1.80;;
68509;SDS011;55512;50.102;19.958;2023-12-22T01:33:58;6.00;;;1.30;;
68509;SDS011;55512;50.102;19.958;2023-12-22T01:36:24;6.10;;;1.50;;
68509;SDS011;55512;50.102;19.958;2023-12-22T01:38:49;5.50;;;1.40;;
68509;SDS011;55512;50.102;19.958;2023-12-22T01:41:14;4.70;;;1.30;;
68509;SDS011;55512;50.102;19.958;2023-12-22T01:43:40;7.40;;;1.70;;
68509;SDS011;55512;50.102;19.958;2023-12-22T01:46:06;5.80;;;1.00;;
68509;SDS011;55512;50.102;19.958;2023-12-22T01:48:33;8.00;;;1.30;;
68509;SDS011;55512;50.102;19.958;2023-12-22T01:51:01;5.90;;;1.70;;
68509;SDS011;55512;50.102;19.958;2023-12-22T01:53:27;6.50;;;1.40;;
68509;SDS011;55512;50.102;19.958;2023-12-22T01:55:54;6.50;;;1.40;;
68509;SDS011;55512;50.102;19.958;2023-12-22T01:58:22;5.10;;;1.30;;
68509;SDS011;55512;50.102;19.958;2023-12-22T02:00:48;8.90;;;1.60;;
68509;SDS011;55512;50.102;19.958;2023-12-22T02:03:14;5.20;;;1.40;;
68509;SDS011;55512;50.102;19.958;2023-12-22T02:05:42;6.30;;;1.30;;
68509;SDS011;55512;50.102;19.958;2023-12-22T02:08:10;8.00;;;1.20;;
68509;SDS011;55512;50.102;19.958;2023-12-22T02:10:36;7.40;;;1.30;;
68509;SDS011;55512;50.102;19.958;2023-12-22T02:13:02;6.70;;;1.70;;
68509;SDS011;55512;50.102;19.958;2023-12-22T02:15:29;6.00;;;1.90;;
68509;SDS011;55512;50.102;19.958;2023-12-22T02:18:00;7.30;;;1.90;;
68509;SDS011;55512;50.102;19.958;2023-12-22T02:20:31;6.20;;;1.40;;
68509;SDS011;55512;50.102;19.958;2023-12-22T02:22:57;5.90;;;1.10;;
68509;SDS011;55512;50.102;19.958;2023-12-22T02:25:22;5.00;;;1.00;;
68509;SDS011;55512;50.102;19.958;2023-12-22T02:27:50;4.50;;;1.60;;
68509;SDS011;55512;50.102;19.958;2023-12-22T02:30:30;5.70;;;1.00;;
68509;SDS011;55512;50.102;19.958;2023-12-22T02:33:00;4.60;;;1.40;;
68509;SDS011;55512;50.102;19.958;2023-12-22T02:35:29;5.90;;;1.00;;
68509;SDS011;55512;50.102;19.958;2023-12-22T02:37:57;5.70;;;0.90;;
68509;SDS011;55512;50.102;19.958;2023-12-22T02:40:24;5.30;;;1.00;;
68509;SDS011;55512;50.102;19.958;2023-12-22T02:42:52;6.10;;;0.90;;
68509;SDS011;55512;50.102;19.958;2023-12-22T02:45:19;2.40;;;0.70;;
68509;SDS011;55512;50.102;19.958;2023-12-22T02:47:45;3.40;;;0.80;;
68509;SDS011;55512;50.102;19.958;2023-12-22T02:50:13;3.90;;;0.80;;
68509;SDS011;55512;50.102;19.958;2023-12-22T02:52:40;3.60;;;0.70;;
68509;SDS011;55512;50.102;19.958;2023-12-22T02:55:06;5.30;;;0.80;;
68509;SDS011;55512;50.102;19.958;2023-12-22T02:57:32;4.40;;;0.90;;
68509;SDS011;55512;50.102;19.958;2023-12-22T02:59:57;3.40;;;0.90;;
68509;SDS011;55512;50.102;19.958;2023-12-22T03:02:23;3.40;;;1.00;;
68509;SDS011;55512;50.102;19.958;2023-12-22T03:04:48;5.00;;;0.90;;
68509;SDS011;55512;50.102;19.958;2023-12-22T03:07:14;4.40;;;1.00;;
68509;SDS011;55512;50.102;19.958;2023-12-22T03:09:41;3.60;;;0.70;;
68509;SDS011;55512;50.102;19.958;2023-12-22T03:12:07;5.30;;;0.90;;
68509;SDS011;55512;50.102;19.958;2023-12-22T03:14:33;3.70;;;0.90;;
68509;SDS011;55512;50.102;19.958;2023-12-22T03:17:03;4.60;;;1.00;;
68509;SDS011;55512;50.102;19.958;2023-12-22T03:19:30;4.10;;;0.90;;
68509;SDS011;55512;50.102;19.958;2023-12-22T03:21:57;8.20;;;1.60;;
68509;SDS011;55512;50.102;19.958;2023-12-22T03:24:23;4.00;;;0.70;;
68509;SDS011;55512;50.102;19.958;2023-12-22T03:26:49;3.70;;;0.90;;
68509;SDS011;55512;50.102;19.958;2023-12-22T03:29:15;3.50;;;0.90;;
68509;SDS011;55512;50.102;19.958;2023-12-22T03:31:40;2.40;;;0.60;;
68509;SDS011;55512;50.102;19.958;2023-12-22T03:34:06;4.30;;;0.60;;
68509;SDS011;55512;50.102;19.958;2023-12-22T03:36:32;6.10;;;1.00;;
68509;SDS011;55512;50.102;19.958;2023-12-22T03:38:57;4.40;;;1.10;;
68509;SDS011;55512;50.102;19.958;2023-12-22T03:41:23;2.20;;;0.60;;
68509;SDS011;55512;50.102;19.958;2023-12-22T03:43:48;3.40;;;0.80;;
68509;SDS011;55512;50.102;19.958;2023-12-22T03:46:13;3.30;;;0.80;;
68509;SDS011;55512;50.102;19.958;2023-12-22T03:48:39;4.00;;;1.20;;
68509;SDS011;55512;50.102;19.958;2023-12-22T03:51:04;9.50;;;1.80;;
68509;SDS011;55512;50.102;19.958;2023-12-22T03:53:30;3.80;;;0.80;;
68509;SDS011;55512;50.102;19.958;2023-12-22T03:55:55;5.80;;;1.20;;
68509;SDS011;55512;50.102;19.958;2023-12-22T03:58:22;6.20;;;1.30;;
68509;SDS011;55512;50.102;19.958;2023-12-22T04:00:47;5.70;;;1.20;;
68509;SDS011;55512;50.102;19.958;2023-12-22T04:03:14;5.10;;;1.00;;
68509;SDS011;55512;50.102;19.958;2023-12-22T04:05:39;2.80;;;1.00;;
68509;SDS011;55512;50.102;19.958;2023-12-22T04:08:05;4.50;;;1.20;;
68509;SDS011;55512;50.102;19.958;2023-12-22T04:10:31;7.40;;;1.20;;
68509;SDS011;55512;50.102;19.958;2023-12-22T04:12:57;5.60;;;1.40;;
68509;SDS011;55512;50.102;19.958;2023-12-22T04:15:22;2.90;;;0.90;;
68509;SDS011;55512;50.102;19.958;2023-12-22T04:17:48;5.20;;;1.20;;
68509;SDS011;55512;50.102;19.958;2023-12-22T04:20:14;6.10;;;1.00;;
68509;SDS011;55512;50.102;19.958;2023-12-22T04:22:40;6.00;;;1.20;;
68509;SDS011;55512;50.102;19.958;2023-12-22T04:25:06;3.50;;;0.50;;
68509;SDS011;55512;50.102;19.958;2023-12-22T04:27:33;4.10;;;1.20;;
68509;SDS011;55512;50.102;19.958;2023-12-22T04:29:59;5.90;;;0.90;;
68509;SDS011;55512;50.102;19.958;2023-12-22T04:32:25;5.70;;;1.10;;
68509;SDS011;55512;50.102;19.958;2023-12-22T04:34:50;2.30;;;0.80;;
68509;SDS011;55512;50.102;19.958;2023-12-22T04:37:15;5.10;;;1.60;;
68509;SDS011;55512;50.102;19.958;2023-12-22T04:39:41;6.70;;;1.20;;
68509;SDS011;55512;50.102;19.958;2023-12-22T04:42:06;6.10;;;1.50;;
68509;SDS011;55512;50.102;19.958;2023-12-22T04:44:32;6.00;;;1.70;;
68509;SDS011;55512;50.102;19.958;2023-12-22T04:46:57;7.30;;;1.50;;
68509;SDS011;55512;50.102;19.958;2023-12-22T04:49:22;4.90;;;1.20;;
68509;SDS011;55512;50.102;19.958;2023-12-22T04:51:48;3.50;;;1.10;;
68509;SDS011;55512;50.102;19.958;2023-12-22T04:54:13;3.20;;;1.10;;
68509;SDS011;55512;50.102;19.958;2023-12-22T04:56:38;6.20;;;1.50;;
68509;SDS011;55512;50.102;19.958;2023-12-22T04:59:04;6.00;;;1.00;;
68509;SDS011;55512;50.102;19.958;2023-12-22T05:01:30;4.80;;;1.10;;
68509;SDS011;55512;50.102;19.958;2023-12-22T05:03:55;6.40;;;1.40;;
68509;SDS011;55512;50.102;19.958;2023-12-22T05:06:21;4.10;;;0.90;;
68509;SDS011;55512;50.102;19.958;2023-12-22T05:08:46;5.70;;;0.90;;
68509;SDS011;55512;50.102;19.958;2023-12-22T05:11:12;6.60;;;1.20;;
68509;SDS011;55512;50.102;19.958;2023-12-22T05:13:37;7.40;;;1.30;;
68509;SDS011;55512;50.102;19.958;2023-12-22T05:16:03;5.60;;;1.10;;
68509;SDS011;55512;50.102;19.958;2023-12-22T05:18:29;5.00;;;1.20;;
68509;SDS011;55512;50.102;19.958;2023-12-22T05:20:55;5.20;;;1.30;;
68509;SDS011;55512;50.102;19.958;2023-12-22T05:23:21;4.50;;;1.40;;
68509;SDS011;55512;50.102;19.958;2023-12-22T05:25:47;7.60;;;1.40;;
68509;SDS011;55512;50.102;19.958;2023-12-22T05:28:12;3.10;;;0.80;;
68509;SDS011;55512;50.102;19.958;2023-12-22T05:30:37;1.60;;;0.70;;
68509;SDS011;55512;50.102;19.958;2023-12-22T05:33:03;1.60;;;0.30;;
68509;SDS011;55512;50.102;19.958;2023-12-22T05:35:28;0.60;;;0.30;;
68509;SDS011;55512;50.102;19.958;2023-12-22T05:37:54;1.70;;;0.40;;
68509;SDS011;55512;50.102;19.958;2023-12-22T05:40:19;1.20;;;0.30;;
68509;SDS011;55512;50.102;19.958;2023-12-22T05:42:45;1.60;;;0.40;;
68509;SDS011;55512;50.102;19.958;2023-12-22T05:45:11;2.30;;;0.30;;
68509;SDS011;55512;50.102;19.958;2023-12-22T05:47:37;2.00;;;0.30;;
68509;SDS011;55512;50.102;19.958;2023-12-22T05:50:03;1.60;;;0.40;;
68509;SDS011;55512;50.102;19.958;2023-12-22T05:52:29;1.80;;;0.40;;
68509;SDS011;55512;50.102;19.958;2023-12-22T05:54:55;2.00;;;0.50;;
68509;SDS011;55512;50.102;19.958;2023-12-22T05:57:20;1.20;;;0.40;;
68509;SDS011;55512;50.102;19.958;2023-12-22T05:59:45;2.70;;;0.60;;
68509;SDS011;55512;50.102;19.958;2023-12-22T06:02:11;1.60;;;0.40;;
68509;SDS011;55512;50.102;19.958;2023-12-22T06:04:36;2.10;;;0.70;;
68509;SDS011;55512;50.102;19.958;2023-12-22T06:07:02;1.80;;;0.50;;
68509;SDS011;55512;50.102;19.958;2023-12-22T06:09:27;1.90;;;0.50;;
68509;SDS011;55512;50.102;19.958;2023-12-22T06:11:53;3.40;;;0.90;;
68509;SDS011;55512;50.102;19.958;2023-12-22T06:14:18;4.20;;;0.60;;
68509;SDS011;55512;50.102;19.958;2023-12-22T06:16:44;5.00;;;1.10;;
68509;SDS011;55512;50.102;19.958;2023-12-22T06:19:09;4.80;;;0.70;;
68509;SDS011;55512;50.102;19.958;2023-12-22T06:21:38;1.80;;;0.80;;
68509;SDS011;55512;50.102;19.958;2023-12-22T06:24:04;7.40;;;1.10;;
68509;SDS011;55512;50.102;19.958;2023-12-22T06:26:30;1.90;;;0.60;;
68509;SDS011;55512;50.102;19.958;2023-12-22T06:28:56;6.40;;;1.20;;
68509;SDS011;55512;50.102;19.958;2023-12-22T06:31:22;3.20;;;0.80;;
68509;SDS011;55512;50.102;19.958;2023-12-22T06:33:49;2.50;;;0.40;;
68509;SDS011;55512;50.102;19.958;2023-12-22T06:36:20;3.90;;;1.10;;
68509;SDS011;55512;50.102;19.958;2023-12-22T06:38:47;4.30;;;0.80;;
68509;SDS011;55512;50.102;19.958;2023-12-22T06:41:21;3.20;;;0.40;;
68509;SDS011;55512;50.102;19.958;2023-12-22T06:43:47;4.40;;;0.90;;
68509;SDS011;55512;50.102;19.958;2023-12-22T06:46:21;4.80;;;0.90;;
68509;SDS011;55512;50.102;19.958;2023-12-22T06:48:48;3.70;;;1.10;;
68509;SDS011;55512;50.102;19.958;2023-12-22T06:51:21;5.00;;;1.00;;
68509;SDS011;55512;50.102;19.958;2023-12-22T06:53:48;9.20;;;1.40;;
68509;SDS011;55512;50.102;19.958;2023-12-22T06:58:48;3.60;;;0.80;;
68509;SDS011;55512;50.102;19.958;2023-12-22T07:01:32;3.80;;;0.70;;
68509;SDS011;55512;50.102;19.958;2023-12-22T07:03:59;3.60;;;0.40;;
68509;SDS011;55512;50.102;19.958;2023-12-22T07:06:28;7.30;;;0.90;;
68509;SDS011;55512;50.102;19.958;2023-12-22T07:11:37;3.90;;;0.80;;
68509;SDS011;55512;50.102;19.958;2023-12-22T07:14:03;6.10;;;1.10;;
68509;SDS011;55512;50.102;19.958;2023-12-22T07:16:29;5.50;;;1.00;;
68509;SDS011;55512;50.102;19.958;2023-12-22T07:18:54;6.60;;;1.60;;
68509;SDS011;55512;50.102;19.958;2023-12-22T07:21:20;3.50;;;0.60;;
68509;SDS011;55512;50.102;19.958;2023-12-22T07:23:46;3.10;;;0.80;;
68509;SDS011;55512;50.102;19.958;2023-12-22T07:26:11;4.00;;;1.20;;
68509;SDS011;55512;50.102;19.958;2023-12-22T07:28:37;8.30;;;1.10;;
68509;SDS011;55512;50.102;19.958;2023-12-22T07:31:03;5.30;;;1.50;;
68509;SDS011;55512;50.102;19.958;2023-12-22T07:33:28;6.10;;;1.70;;
68509;SDS011;55512;50.102;19.958;2023-12-22T07:35:54;5.20;;;1.70;;
68509;SDS011;55512;50.102;19.958;2023-12-22T07:38:20;4.80;;;1.00;;
68509;SDS011;55512;50.102;19.958;2023-12-22T07:40:45;6.80;;;0.80;;
68509;SDS011;55512;50.102;19.958;2023-12-22T07:43:10;7.90;;;1.80;;
68509;SDS011;55512;50.102;19.958;2023-12-22T07:45:36;7.30;;;1.30;;
68509;SDS011;55512;50.102;19.958;2023-12-22T07:48:03;3.80;;;1.00;;
68509;SDS011;55512;50.102;19.958;2023-12-22T07:50:28;4.30;;;1.20;;
68509;SDS011;55512;50.102;19.958;2023-12-22T07:52:54;8.20;;;2.10;;
68509;SDS011;55512;50.102;19.958;2023-12-22T07:55:19;8.10;;;1.60;;
68509;SDS011;55512;50.102;19.958;2023-12-22T07:57:44;7.00;;;1.70;;
68509;SDS011;55512;50.102;19.958;2023-12-22T08:00:11;4.90;;;1.20;;
68509;SDS011;55512;50.102;19.958;2023-12-22T08:02:37;5.90;;;1.70;;
68509;SDS011;55512;50.102;19.958;2023-12-22T08:05:04;9.00;;;1.70;;
68509;SDS011;55512;50.102;19.958;2023-12-22T08:07:29;8.50;;;2.20;;
68509;SDS011;55512;50.102;19.958;2023-12-22T08:09:56;6.40;;;1.50;;
68509;SDS011;55512;50.102;19.958;2023-12-22T08:12:21;7.20;;;1.40;;
68509;SDS011;55512;50.102;19.958;2023-12-22T08:14:47;8.90;;;2.20;;
68509;SDS011;55512;50.102;19.958;2023-12-22T08:17:12;7.70;;;2.40;;
68509;SDS011;55512;50.102;19.958;2023-12-22T08:19:39;9.10;;;2.20;;
68509;SDS011;55512;50.102;19.958;2023-12-22T08:22:10;8.20;;;2.60;;
68509;SDS011;55512;50.102;19.958;2023-12-22T08:24:38;7.90;;;1.90;;
68509;SDS011;55512;50.102;19.958;2023-12-22T08:27:07;9.70;;;2.90;;
68509;SDS011;55512;50.102;19.958;2023-12-22T08:29:33;8.30;;;2.10;;
68509;SDS011;55512;50.102;19.958;2023-12-22T08:31:58;9.50;;;1.90;;
68509;SDS011;55512;50.102;19.958;2023-12-22T08:34:25;7.20;;;2.00;;
68509;SDS011;55512;50.102;19.958;2023-12-22T08:36:51;10.60;;;2.60;;
68509;SDS011;55512;50.102;19.958;2023-12-22T08:39:16;8.30;;;2.40;;
68509;SDS011;55512;50.102;19.958;2023-12-22T08:41:41;6.60;;;2.30;;
68509;SDS011;55512;50.102;19.958;2023-12-22T08:44:07;4.20;;;1.30;;
68509;SDS011;55512;50.102;19.958;2023-12-22T08:46:33;8.20;;;2.30;;
68509;SDS011;55512;50.102;19.958;2023-12-22T08:48:59;8.60;;;2.80;;
68509;SDS011;55512;50.102;19.958;2023-12-22T08:51:25;5.90;;;1.80;;
68509;SDS011;55512;50.102;19.958;2023-12-22T08:53:53;7.10;;;2.20;;
68509;SDS011;55512;50.102;19.958;2023-12-22T08:56:22;7.80;;;2.00;;
68509;SDS011;55512;50.102;19.958;2023-12-22T08:58:48;7.80;;;2.00;;
68509;SDS011;55512;50.102;19.958;2023-12-22T09:01:17;7.60;;;2.10;;
68509;SDS011;55512;50.102;19.958;2023-12-22T09:03:43;3.80;;;0.90;;
68509;SDS011;55512;50.102;19.958;2023-12-22T09:06:20;8.40;;;2.10;;
68509;SDS011;55512;50.102;19.958;2023-12-22T09:08:47;6.80;;;1.80;;
68509;SDS011;55512;50.102;19.958;2023-12-22T09:11:15;6.40;;;2.10;;
68509;SDS011;55512;50.102;19.958;2023-12-22T09:13:42;6.20;;;2.10;;
68509;SDS011;55512;50.102;19.958;2023-12-22T09:16:08;7.80;;;1.80;;
68509;SDS011;55512;50.102;19.958;2023-12-22T09:18:35;5.90;;;1.30;;
68509;SDS011;55512;50.102;19.958;2023-12-22T09:21:01;4.00;;;1.30;;
68509;SDS011;55512;50.102;19.958;2023-12-22T09:23:30;4.50;;;1.30;;
68509;SDS011;55512;50.102;19.958;2023-12-22T09:25:56;5.40;;;1.80;;
68509;SDS011;55512;50.102;19.958;2023-12-22T09:28:23;3.30;;;0.90;;
68509;SDS011;55512;50.102;19.958;2023-12-22T09:30:49;4.10;;;1.00;;
68509;SDS011;55512;50.102;19.958;2023-12-22T09:33:14;5.00;;;1.40;;
68509;SDS011;55512;50.102;19.958;2023-12-22T09:35:40;2.80;;;0.80;;
68509;SDS011;55512;50.102;19.958;2023-12-22T09:38:07;4.50;;;1.30;;
68509;SDS011;55512;50.102;19.958;2023-12-22T09:40:39;2.40;;;0.80;;
68509;SDS011;55512;50.102;19.958;2023-12-22T09:43:08;4.30;;;0.90;;
68509;SDS011;55512;50.102;19.958;2023-12-22T09:45:36;4.80;;;1.00;;
68509;SDS011;55512;50.102;19.958;2023-12-22T09:48:05;3.30;;;1.10;;
68509;SDS011;55512;50.102;19.958;2023-12-22T09:50:32;4.90;;;1.00;;
68509;SDS011;55512;50.102;19.958;2023-12-22T09:52:59;5.90;;;1.80;;
68509;SDS011;55512;50.102;19.958;2023-12-22T09:55:25;2.80;;;1.00;;
68509;SDS011;55512;50.102;19.958;2023-12-22T09:57:52;3.90;;;1.00;;
68509;SDS011;55512;50.102;19.958;2023-12-22T10:00:21;5.40;;;1.00;;
68509;SDS011;55512;50.102;19.958;2023-12-22T10:02:47;4.10;;;1.40;;
68509;SDS011;55512;50.102;19.958;2023-12-22T10:05:13;4.60;;;1.50;;
68509;SDS011;55512;50.102;19.958;2023-12-22T10:07:41;5.70;;;1.80;;
68509;SDS011;55512;50.102;19.958;2023-12-22T10:10:09;5.30;;;1.60;;
68509;SDS011;55512;50.102;19.958;2023-12-22T10:12:36;9.30;;;1.80;;
68509;SDS011;55512;50.102;19.958;2023-12-22T10:15:03;4.80;;;1.40;;
68509;SDS011;55512;50.102;19.958;2023-12-22T10:17:30;5.50;;;1.60;;
68509;SDS011;55512;50.102;19.958;2023-12-22T10:19:56;6.30;;;1.50;;
68509;SDS011;55512;50.102;19.958;2023-12-22T10:22:21;5.90;;;1.60;;
68509;SDS011;55512;50.102;19.958;2023-12-22T10:24:49;7.30;;;1.70;;
68509;SDS011;55512;50.102;19.958;2023-12-22T10:27:18;7.90;;;1.40;;
68509;SDS011;55512;50.102;19.958;2023-12-22T10:29:56;8.10;;;2.10;;
68509;SDS011;55512;50.102;19.958;2023-12-22T10:32:23;4.10;;;1.00;;
68509;SDS011;55512;50.102;19.958;2023-12-22T10:34:51;5.50;;;1.60;;
68509;SDS011;55512;50.102;19.958;2023-12-22T10:37:17;7.50;;;1.50;;
68509;SDS011;55512;50.102;19.958;2023-12-22T10:39:43;7.10;;;1.70;;
68509;SDS011;55512;50.102;19.958;2023-12-22T10:42:13;5.20;;;1.50;;
68509;SDS011;55512;50.102;19.958;2023-12-22T10:44:40;5.10;;;1.20;;
68509;SDS011;55512;50.102;19.958;2023-12-22T10:47:06;7.70;;;1.90;;
68509;SDS011;55512;50.102;19.958;2023-12-22T10:49:32;4.80;;;1.40;;
68509;SDS011;55512;50.102;19.958;2023-12-22T10:51:59;5.40;;;1.40;;
68509;SDS011;55512;50.102;19.958;2023-12-22T10:54:24;6.00;;;2.00;;
68509;SDS011;55512;50.102;19.958;2023-12-22T10:56:51;5.60;;;1.40;;
68509;SDS011;55512;50.102;19.958;2023-12-22T10:59:22;6.80;;;1.70;;
68509;SDS011;55512;50.102;19.958;2023-12-22T11:01:51;4.90;;;1.40;;
68509;SDS011;55512;50.102;19.958;2023-12-22T11:04:18;6.70;;;2.10;;
68509;SDS011;55512;50.102;19.958;2023-12-22T11:06:47;6.50;;;1.70;;
68509;SDS011;55512;50.102;19.958;2023-12-22T11:09:16;9.80;;;2.40;;
68509;SDS011;55512;50.102;19.958;2023-12-22T11:11:42;5.50;;;1.80;;
68509;SDS011;55512;50.102;19.958;2023-12-22T11:14:08;7.90;;;2.00;;
68509;SDS011;55512;50.102;19.958;2023-12-22T11:16:35;7.50;;;2.50;;
68509;SDS011;55512;50.102;19.958;2023-12-22T11:19:03;8.10;;;1.90;;
68509;SDS011;55512;50.102;19.958;2023-12-22T11:21:30;8.00;;;2.40;;
68509;SDS011;55512;50.102;19.958;2023-12-22T11:23:56;6.70;;;1.40;;
68509;SDS011;55512;50.102;19.958;2023-12-22T11:26:23;5.50;;;1.60;;
68509;SDS011;55512;50.102;19.958;2023-12-22T11:28:51;4.90;;;1.30;;
68509;SDS011;55512;50.102;19.958;2023-12-22T11:31:18;4.30;;;1.40;;
68509;SDS011;55512;50.102;19.958;2023-12-22T11:33:48;4.50;;;1.30;;
68509;SDS011;55512;50.102;19.958;2023-12-22T11:36:16;3.60;;;0.70;;
68509;SDS011;55512;50.102;19.958;2023-12-22T11:38:44;1.90;;;0.50;;
68509;SDS011;55512;50.102;19.958;2023-12-22T11:41:14;2.30;;;0.60;;
68509;SDS011;55512;50.102;19.958;2023-12-22T11:43:44;3.10;;;0.70;;
68509;SDS011;55512;50.102;19.958;2023-12-22T11:46:10;5.70;;;1.10;;
68509;SDS011;55512;50.102;19.958;2023-12-22T11:48:36;6.50;;;1.50;;
68509;SDS011;55512;50.102;19.958;2023-12-22T11:51:12;10.00;;;2.40;;
68509;SDS011;55512;50.102;19.958;2023-12-22T11:53:42;5.00;;;1.70;;
68509;SDS011;55512;50.102;19.958;2023-12-22T11:56:09;5.40;;;1.50;;
68509;SDS011;55512;50.102;19.958;2023-12-22T11:58:42;5.20;;;1.60;;
68509;SDS011;55512;50.102;19.958;2023-12-22T12:01:17;6.40;;;1.60;;
68509;SDS011;55512;50.102;19.958;2023-12-22T12:03:51;7.30;;;1.90;;
68509;SDS011;55512;50.102;19.958;2023-12-22T12:08:55;5.80;;;1.90;;
68509;SDS011;55512;50.102;19.958;2023-12-22T12:11:22;6.80;;;1.60;;
68509;SDS011;55512;50.102;19.958;2023-12-22T12:13:49;5.30;;;1.50;;
68509;SDS011;55512;50.102;19.958;2023-12-22T12:16:18;4.00;;;1.30;;
68509;SDS011;55512;50.102;19.958;2023-12-22T12:18:50;7.80;;;1.70;;
68509;SDS011;55512;50.102;19.958;2023-12-22T12:21:17;5.40;;;2.00;;
68509;SDS011;55512;50.102;19.958;2023-12-22T12:23:43;5.60;;;1.90;;
68509;SDS011;55512;50.102;19.958;2023-12-22T12:26:09;5.00;;;1.50;;
68509;SDS011;55512;50.102;19.958;2023-12-22T12:28:37;6.20;;;1.90;;
68509;SDS011;55512;50.102;19.958;2023-12-22T12:31:04;3.80;;;1.40;;
68509;SDS011;55512;50.102;19.958;2023-12-22T12:33:32;6.40;;;1.80;;
68509;SDS011;55512;50.102;19.958;2023-12-22T12:35:59;5.90;;;1.60;;
68509;SDS011;55512;50.102;19.958;2023-12-22T12:38:48;4.70;;;1.30;;
68509;SDS011;55512;50.102;19.958;2023-12-22T12:41:31;3.30;;;1.20;;
68509;SDS011;55512;50.102;19.958;2023-12-22T12:43:58;5.40;;;1.30;;
68509;SDS011;55512;50.102;19.958;2023-12-22T12:46:35;4.70;;;1.40;;
68509;SDS011;55512;50.102;19.958;2023-12-22T12:49:09;6.80;;;1.90;;
68509;SDS011;55512;50.102;19.958;2023-12-22T12:51:44;8.70;;;2.00;;
68509;SDS011;55512;50.102;19.958;2023-12-22T12:54:11;3.80;;;1.30;;
